createdAt,value
2022-10-20T00:01:25.191Z,4.80
2022-10-20T00:03:58.418Z,4.20
2022-10-20T00:06:32.674Z,4.00
2022-10-20T00:09:09.789Z,4.00
2022-10-20T00:11:42.715Z,4.10
2022-10-20T00:14:15.695Z,4.60
2022-10-20T00:16:48.425Z,4.20
2022-10-20T00:19:21.065Z,4.60
2022-10-20T00:21:53.445Z,4.70
2022-10-20T00:24:26.156Z,6.20
2022-10-20T00:26:59.195Z,4.50
2022-10-20T00:29:33.475Z,3.90
2022-10-20T00:32:06.235Z,4.70
2022-10-20T00:34:38.816Z,4.60
2022-10-20T00:37:11.295Z,4.50
2022-10-20T00:39:43.936Z,5.70
2022-10-20T00:42:18.646Z,4.90
2022-10-20T00:45:00.009Z,5.60
2022-10-20T00:47:40.964Z,4.80
2022-10-20T00:50:18.155Z,7.30
2022-10-20T00:52:52.088Z,5.00
2022-10-20T00:55:28.754Z,4.30
2022-10-20T00:58:02.685Z,4.40
2022-10-20T01:00:35.635Z,4.20
2022-10-20T01:03:13.634Z,3.80
2022-10-20T01:05:46.406Z,3.90
2022-10-20T01:08:19.015Z,4.30
2022-10-20T01:11:10.935Z,4.10
2022-10-20T01:13:55.375Z,4.50
2022-10-20T01:16:37.210Z,4.50
2022-10-20T01:19:28.495Z,4.30
2022-10-20T01:22:25.315Z,5.20
2022-10-20T01:25:08.865Z,5.10
2022-10-20T01:27:44.610Z,4.30
2022-10-20T01:30:20.223Z,4.30
2022-10-20T01:33:06.465Z,4.40
2022-10-20T01:35:50.895Z,4.40
2022-10-20T01:38:31.823Z,4.90
2022-10-20T01:41:11.225Z,4.50
2022-10-20T01:43:47.136Z,4.20
2022-10-20T01:46:23.548Z,5.30
2022-10-20T01:48:56.765Z,4.70
2022-10-20T01:51:29.527Z,4.70
2022-10-20T01:54:02.421Z,4.70
2022-10-20T01:56:44.234Z,5.90
2022-10-20T01:59:48.666Z,4.20
2022-10-20T02:02:46.631Z,5.50
2022-10-20T02:05:32.616Z,9.60
2022-10-20T02:08:13.676Z,7.90
2022-10-20T02:10:50.359Z,6.80
2022-10-20T02:13:24.265Z,5.00
2022-10-20T02:15:58.936Z,5.20
2022-10-20T02:18:37.296Z,4.90
2022-10-20T02:21:11.114Z,4.50
2022-10-20T02:26:20.629Z,4.30
2022-10-20T02:28:59.314Z,4.10
2022-10-20T02:31:33.125Z,5.10
2022-10-20T02:34:06.317Z,3.80
2022-10-20T02:36:42.924Z,4.10
2022-10-20T02:39:15.996Z,4.70
2022-10-20T02:41:48.536Z,4.30
2022-10-20T02:44:21.095Z,4.50
2022-10-20T02:46:53.683Z,5.00
2022-10-20T02:49:27.816Z,4.70
2022-10-20T02:52:00.395Z,5.00
2022-10-20T02:54:33.223Z,4.90
2022-10-20T02:57:05.849Z,4.60
2022-10-20T02:59:38.475Z,4.80
2022-10-20T03:02:11.027Z,5.60
2022-10-20T03:04:43.815Z,6.60
2022-10-20T03:07:17.106Z,4.70
2022-10-20T03:09:49.855Z,5.60
2022-10-20T03:12:22.433Z,5.30
2022-10-20T03:14:55.125Z,4.70
2022-10-20T03:17:27.957Z,4.80
2022-10-20T03:20:00.725Z,5.30
2022-10-20T03:22:33.379Z,4.90
2022-10-20T03:25:06.456Z,5.40
2022-10-20T03:27:39.363Z,5.10
2022-10-20T03:30:13.705Z,5.30
2022-10-20T03:32:46.316Z,4.90
2022-10-20T03:35:19.165Z,5.20
2022-10-20T03:37:51.654Z,4.60
2022-10-20T03:40:24.495Z,4.80
2022-10-20T03:42:57.125Z,4.90
2022-10-20T03:45:32.295Z,4.80
2022-10-20T03:48:04.775Z,4.60
2022-10-20T03:50:39.655Z,5.30
2022-10-20T03:53:14.105Z,5.10
2022-10-20T03:55:46.796Z,5.80
2022-10-20T03:58:19.724Z,5.20
2022-10-20T04:00:53.565Z,5.60
2022-10-20T04:03:26.235Z,5.30
2022-10-20T04:06:01.425Z,5.20
2022-10-20T04:08:34.159Z,5.30
2022-10-20T04:11:07.225Z,5.40
2022-10-20T04:13:40.475Z,5.50
2022-10-20T04:16:13.647Z,5.10
2022-10-20T04:18:46.615Z,5.70
2022-10-20T04:21:19.373Z,5.70
2022-10-20T04:23:52.397Z,6.60
2022-10-20T04:26:25.046Z,5.90
2022-10-20T04:29:01.075Z,5.70
2022-10-20T04:31:34.606Z,5.00
2022-10-20T04:36:37.975Z,6.20
2022-10-20T04:39:11.111Z,6.80
2022-10-20T04:41:44.457Z,6.20
2022-10-20T04:44:17.655Z,6.20
2022-10-20T04:46:50.195Z,6.30
2022-10-20T04:49:23.026Z,5.10
2022-10-20T04:51:59.964Z,5.90
2022-10-20T04:54:35.738Z,5.00
2022-10-20T04:57:08.365Z,5.30
2022-10-20T04:59:41.155Z,6.10
2022-10-20T05:02:15.513Z,6.00
2022-10-20T05:04:48.315Z,6.10
2022-10-20T05:07:21.196Z,5.30
2022-10-20T05:09:53.735Z,5.50
2022-10-20T05:12:26.406Z,6.20
2022-10-20T05:14:58.976Z,6.10
2022-10-20T05:17:32.523Z,7.60
2022-10-20T05:20:06.120Z,7.00
2022-10-20T05:22:39.033Z,7.50
2022-10-20T05:25:35.044Z,5.50
2022-10-20T05:28:05.046Z,8.50
2022-10-20T05:30:39.134Z,8.10
2022-10-20T05:33:14.477Z,6.30
2022-10-20T05:35:47.116Z,7.90
2022-10-20T05:38:19.637Z,7.20
2022-10-20T05:40:52.405Z,6.80
2022-10-20T05:43:25.005Z,6.30
2022-10-20T05:45:59.035Z,7.20
2022-10-20T05:48:31.495Z,6.60
2022-10-20T05:51:14.947Z,7.40
2022-10-20T05:53:49.335Z,7.40
2022-10-20T05:56:23.335Z,8.30
2022-10-20T05:58:56.375Z,7.00
2022-10-20T06:01:40.623Z,7.20
2022-10-20T06:04:13.216Z,8.00
2022-10-20T06:06:46.871Z,8.20
2022-10-20T06:11:52.057Z,7.30
2022-10-20T06:14:26.209Z,9.10
2022-10-20T06:16:59.895Z,8.80
2022-10-20T06:19:35.028Z,8.30
2022-10-20T06:22:07.939Z,9.00
2022-10-20T06:24:40.591Z,8.40
2022-10-20T06:27:13.388Z,8.10
2022-10-20T06:29:46.524Z,7.70
2022-10-20T06:32:19.456Z,8.40
2022-10-20T06:34:52.146Z,9.00
2022-10-20T06:37:24.805Z,8.30
2022-10-20T06:39:57.467Z,7.90
2022-10-20T06:42:30.786Z,9.00
2022-10-20T06:45:04.001Z,8.20
2022-10-20T06:47:37.007Z,9.20
2022-10-20T06:50:12.075Z,9.00
2022-10-20T06:52:44.728Z,8.60
2022-10-20T06:55:17.295Z,8.20
2022-10-20T06:57:50.216Z,9.50
2022-10-20T07:00:22.876Z,8.30
2022-10-20T07:02:55.827Z,6.00
2022-10-20T07:05:28.421Z,8.70
2022-10-20T07:08:01.041Z,7.80
2022-10-20T07:10:36.655Z,10.10
2022-10-20T07:13:09.555Z,9.80
2022-10-20T07:15:43.425Z,9.60
2022-10-20T07:18:16.306Z,9.30
2022-10-20T07:20:48.715Z,9.20
2022-10-20T07:23:21.587Z,8.30
2022-10-20T07:25:54.037Z,8.40
2022-10-20T07:28:27.170Z,7.60
2022-10-20T07:31:03.835Z,9.20
2022-10-20T07:33:37.261Z,8.80
2022-10-20T07:36:18.048Z,7.10
2022-10-20T07:38:51.718Z,6.70
2022-10-20T07:41:24.695Z,4.30
2022-10-20T07:43:58.507Z,5.70
2022-10-20T07:46:31.029Z,3.30
2022-10-20T07:54:29.625Z,2.00
2022-10-20T07:59:33.674Z,1.90
2022-10-20T08:02:06.767Z,2.00
2022-10-20T08:04:39.368Z,1.30
2022-10-20T08:07:12.285Z,2.00
2022-10-20T08:12:24.226Z,2.00
2022-10-20T08:14:58.896Z,2.50
2022-10-20T08:17:31.958Z,2.20
2022-10-20T08:20:15.825Z,3.30
2022-10-20T08:22:51.080Z,3.40
2022-10-20T08:25:24.267Z,3.90
2022-10-20T08:30:35.005Z,4.10
2022-10-20T08:33:07.856Z,3.70
2022-10-20T08:35:42.263Z,3.80
2022-10-20T08:38:14.976Z,4.40
2022-10-20T08:40:48.071Z,3.50
2022-10-20T08:43:22.506Z,2.90
2022-10-20T08:45:55.486Z,3.00
2022-10-20T08:48:32.354Z,3.30
2022-10-20T08:51:06.330Z,2.50
2022-10-20T08:53:42.617Z,3.00
2022-10-20T08:56:17.097Z,1.40
2022-10-20T08:58:52.105Z,2.10
2022-10-20T09:01:27.881Z,2.30
2022-10-20T09:04:04.820Z,1.60
2022-10-20T09:06:42.186Z,1.70
2022-10-20T09:09:18.646Z,2.10
2022-10-20T09:11:52.067Z,1.90
2022-10-20T09:14:24.692Z,2.00
2022-10-20T09:17:00.274Z,2.10
2022-10-20T09:19:35.455Z,1.40
2022-10-20T09:22:10.307Z,2.20
2022-10-20T09:24:45.278Z,1.60
2022-10-20T09:27:31.981Z,1.70
2022-10-20T09:30:17.816Z,1.50
2022-10-20T09:32:51.276Z,1.60
2022-10-20T09:35:30.536Z,1.50
2022-10-20T09:38:06.922Z,1.60
2022-10-20T09:40:45.486Z,1.60
2022-10-20T09:43:21.153Z,1.70
2022-10-20T09:45:58.226Z,2.20
2022-10-20T09:48:34.075Z,2.10
2022-10-20T09:51:08.360Z,1.70
2022-10-20T09:53:54.576Z,1.90
2022-10-20T09:56:37.227Z,2.00
2022-10-20T09:59:20.497Z,1.30
2022-10-20T10:02:01.964Z,1.20
2022-10-20T10:04:37.976Z,1.40
2022-10-20T10:07:33.877Z,1.40
2022-10-20T10:10:09.258Z,2.00
2022-10-20T10:12:42.094Z,1.70
2022-10-20T10:15:30.652Z,1.30
2022-10-20T10:18:13.985Z,1.30
2022-10-20T10:20:47.496Z,1.50
2022-10-20T10:23:31.740Z,1.30
2022-10-20T10:26:05.031Z,1.10
2022-10-20T10:28:42.343Z,1.30
2022-10-20T10:31:26.394Z,1.40
2022-10-20T10:34:34.207Z,1.20
2022-10-20T10:37:07.443Z,1.70
2022-10-20T10:39:40.136Z,1.30
2022-10-20T10:42:47.774Z,1.80
2022-10-20T10:45:32.766Z,1.70
2022-10-20T10:48:42.775Z,2.00
2022-10-20T10:51:26.836Z,1.60
2022-10-20T10:54:12.877Z,1.80
2022-10-20T10:56:49.407Z,1.70
2022-10-20T10:59:28.396Z,2.00
2022-10-20T11:02:28.843Z,1.40
2022-10-20T11:05:35.566Z,1.30
2022-10-20T11:08:18.977Z,1.90
2022-10-20T11:11:01.598Z,1.60
2022-10-20T11:13:42.576Z,1.70
2022-10-20T11:16:32.525Z,1.60
2022-10-20T11:19:37.058Z,1.50
2022-10-20T11:24:56.108Z,1.70
2022-10-20T11:27:32.801Z,1.50
2022-10-20T11:30:16.508Z,2.20
2022-10-20T11:32:54.632Z,5.90
2022-10-20T11:35:37.577Z,2.10
2022-10-20T11:38:20.416Z,1.60
2022-10-20T11:41:00.795Z,1.80
2022-10-20T11:43:41.757Z,1.60
2022-10-20T11:46:18.255Z,1.60
2022-10-20T11:48:53.556Z,1.50
2022-10-20T11:51:54.645Z,1.40
2022-10-20T11:54:42.966Z,1.50
2022-10-20T11:57:26.715Z,1.80
2022-10-20T12:03:07.258Z,2.20
2022-10-20T12:05:58.015Z,1.90
2022-10-20T12:08:59.141Z,1.40
2022-10-20T12:11:37.254Z,1.50
2022-10-20T12:14:26.677Z,1.50
2022-10-20T12:17:22.763Z,1.40
2022-10-20T12:20:15.936Z,1.60
2022-10-20T12:22:50.570Z,1.60
2022-10-20T12:25:38.069Z,1.30
2022-10-20T12:28:45.266Z,2.00
2022-10-20T12:31:18.016Z,1.50
2022-10-20T12:34:06.394Z,1.80
2022-10-20T12:36:41.496Z,1.70
2022-10-20T12:39:25.277Z,2.40
2022-10-20T12:44:47.619Z,1.30
2022-10-20T12:47:25.677Z,1.80
2022-10-20T12:50:02.886Z,1.80
2022-10-20T12:52:38.365Z,2.00
2022-10-20T12:55:19.514Z,1.50
2022-10-20T12:58:11.451Z,2.10
2022-10-20T13:01:06.155Z,1.70
2022-10-20T13:03:48.217Z,1.50
2022-10-20T13:06:46.867Z,1.70
2022-10-20T13:09:27.226Z,1.50
2022-10-20T13:12:06.615Z,1.80
2022-10-20T13:14:52.221Z,1.90
2022-10-20T13:17:31.368Z,1.30
2022-10-20T13:20:20.723Z,1.50
2022-10-20T13:22:55.317Z,1.20
2022-10-20T13:25:37.712Z,1.50
2022-10-20T13:28:21.915Z,1.40
2022-10-20T13:31:08.356Z,1.50
2022-10-20T13:34:04.992Z,1.70
2022-10-20T13:36:55.120Z,1.40
2022-10-20T13:39:38.344Z,2.00
2022-10-20T13:42:21.125Z,2.00
2022-10-20T13:45:05.917Z,1.90
2022-10-20T13:47:53.255Z,1.70
2022-10-20T13:50:29.825Z,1.90
2022-10-20T13:53:11.216Z,1.50
2022-10-20T13:55:59.925Z,1.60
2022-10-20T13:58:33.575Z,1.90
2022-10-20T14:01:17.310Z,1.90
2022-10-20T14:03:51.142Z,1.80
2022-10-20T14:06:39.258Z,1.60
2022-10-20T14:09:20.128Z,1.60
2022-10-20T14:11:56.449Z,1.50
2022-10-20T14:14:31.916Z,2.10
2022-10-20T14:17:06.578Z,2.00
2022-10-20T14:19:52.221Z,1.60
2022-10-20T14:22:27.407Z,2.00
2022-10-20T14:25:01.556Z,1.70
2022-10-20T14:27:36.814Z,1.60
2022-10-20T14:30:19.308Z,1.60
2022-10-20T14:32:53.282Z,1.50
2022-10-20T14:35:34.179Z,2.10
2022-10-20T14:38:18.665Z,1.60
2022-10-20T14:40:56.570Z,1.60
2022-10-20T14:43:39.671Z,1.50
2022-10-20T14:46:26.384Z,1.50
2022-10-20T14:49:03.378Z,1.70
2022-10-20T14:51:45.796Z,2.10
2022-10-20T14:54:30.681Z,1.80
2022-10-20T14:58:02.504Z,1.60
2022-10-20T15:00:37.963Z,2.00
2022-10-20T15:03:11.462Z,2.40
2022-10-20T15:05:48.836Z,2.50
2022-10-20T15:08:27.277Z,3.10
2022-10-20T15:11:01.300Z,2.60
2022-10-20T15:13:35.586Z,2.70
2022-10-20T15:16:34.933Z,2.80
2022-10-20T15:19:30.646Z,2.80
2022-10-20T15:22:11.004Z,3.10
2022-10-20T15:24:44.957Z,3.70
2022-10-20T15:27:19.841Z,4.10
2022-10-20T15:29:55.510Z,3.60
2022-10-20T15:32:28.326Z,3.40
2022-10-20T15:35:02.483Z,4.00
2022-10-20T15:37:37.659Z,3.40
2022-10-20T15:40:12.246Z,3.30
2022-10-20T15:42:45.090Z,3.50
2022-10-20T15:45:22.656Z,4.20
2022-10-20T15:47:55.397Z,4.10
2022-10-20T15:50:28.577Z,4.80
2022-10-20T15:53:01.605Z,4.70
2022-10-20T15:55:38.176Z,5.30
2022-10-20T15:58:11.031Z,6.40
2022-10-20T16:00:43.801Z,6.80
2022-10-20T16:03:20.045Z,7.00
2022-10-20T16:05:54.576Z,8.30
2022-10-20T16:08:27.768Z,7.80
2022-10-20T16:11:00.556Z,7.60
2022-10-20T16:13:33.821Z,6.90
2022-10-20T16:16:07.507Z,7.20
2022-10-20T16:18:40.794Z,6.70
2022-10-20T16:21:13.616Z,5.70
2022-10-20T16:23:47.836Z,6.30
2022-10-20T16:26:21.545Z,7.20
2022-10-20T16:28:54.310Z,6.50
2022-10-20T16:31:27.789Z,6.50
2022-10-20T16:34:03.619Z,6.70
2022-10-20T16:36:36.516Z,6.70
2022-10-20T16:39:11.905Z,7.10
2022-10-20T16:41:45.625Z,6.10
2022-10-20T16:44:18.925Z,6.30
2022-10-20T16:46:53.086Z,6.50
2022-10-20T16:49:25.945Z,6.30
2022-10-20T16:51:59.586Z,6.30
2022-10-20T16:54:32.872Z,7.00
2022-10-20T16:57:07.646Z,6.00
2022-10-20T16:59:43.745Z,7.30
2022-10-20T17:02:16.925Z,6.70
2022-10-20T17:04:51.635Z,7.90
2022-10-20T17:07:24.517Z,7.00
2022-10-20T17:09:58.005Z,7.00
2022-10-20T17:12:42.405Z,7.60
2022-10-20T17:15:16.946Z,7.80
2022-10-20T17:17:49.756Z,8.20
2022-10-20T17:20:22.417Z,8.30
2022-10-20T17:22:57.378Z,8.20
2022-10-20T17:25:29.917Z,8.10
2022-10-20T17:28:04.276Z,7.70
2022-10-20T17:30:36.966Z,8.50
2022-10-20T17:33:09.729Z,8.70
2022-10-20T17:35:43.286Z,8.70
2022-10-20T17:40:46.996Z,9.40
2022-10-20T17:43:19.975Z,9.50
2022-10-20T17:46:02.255Z,9.40
2022-10-20T17:48:35.273Z,10.30
2022-10-20T17:51:11.397Z,9.20
2022-10-20T17:53:46.336Z,11.90
2022-10-20T17:56:20.787Z,9.30
2022-10-20T17:58:54.266Z,8.70
2022-10-20T18:01:30.207Z,9.60
2022-10-20T18:04:05.217Z,9.90
2022-10-20T18:06:40.169Z,9.50
2022-10-20T18:09:15.572Z,8.20
2022-10-20T18:11:50.790Z,8.90
2022-10-20T18:14:24.216Z,7.50
2022-10-20T18:16:59.635Z,9.40
2022-10-20T18:19:38.437Z,8.20
2022-10-20T18:22:11.175Z,8.60
2022-10-20T18:24:43.873Z,7.90
2022-10-20T18:27:16.826Z,8.80
2022-10-20T18:29:50.737Z,8.00
2022-10-20T18:32:23.376Z,8.60
2022-10-20T18:34:56.305Z,8.20
2022-10-20T18:37:29.094Z,7.10
2022-10-20T18:40:03.245Z,6.60
2022-10-20T18:42:37.065Z,6.50
2022-10-20T18:47:47.961Z,6.50
2022-10-20T18:50:21.396Z,6.20
2022-10-20T18:52:53.926Z,7.10
2022-10-20T18:55:26.856Z,6.80
2022-10-20T18:58:01.217Z,7.00
2022-10-20T19:00:35.781Z,7.30
2022-10-20T19:03:11.086Z,6.60
2022-10-20T19:05:44.286Z,7.10
2022-10-20T19:08:17.006Z,8.00
2022-10-20T19:10:50.094Z,8.40
2022-10-20T19:13:22.757Z,8.70
2022-10-20T19:15:56.146Z,8.70
2022-10-20T19:18:31.487Z,8.10
2022-10-20T19:21:06.596Z,8.10
2022-10-20T19:23:44.300Z,8.60
2022-10-20T19:26:25.576Z,8.50
2022-10-20T19:29:01.383Z,7.90
2022-10-20T19:31:37.034Z,9.50
2022-10-20T19:34:12.143Z,8.50
2022-10-20T19:36:47.275Z,8.20
2022-10-20T19:41:58.466Z,8.10
2022-10-20T19:44:31.965Z,8.40
2022-10-20T19:47:07.145Z,7.40
2022-10-20T19:49:41.805Z,8.20
2022-10-20T19:52:15.097Z,7.50
2022-10-20T19:54:47.974Z,7.90
2022-10-20T19:57:20.807Z,7.10
2022-10-20T19:59:53.463Z,9.00
2022-10-20T20:02:26.916Z,7.90
2022-10-20T20:05:00.267Z,8.50
2022-10-20T20:07:33.150Z,7.40
2022-10-20T20:10:07.060Z,8.60
2022-10-20T20:12:39.788Z,9.20
2022-10-20T20:15:12.666Z,10.10
2022-10-20T20:17:45.636Z,10.10
2022-10-20T20:20:18.677Z,9.30
2022-10-20T20:22:52.857Z,10.10
2022-10-20T20:25:29.507Z,10.10
2022-10-20T20:28:03.105Z,10.10
2022-10-20T20:30:38.615Z,10.50
2022-10-20T20:33:14.056Z,10.60
2022-10-20T20:35:48.706Z,10.00
2022-10-20T20:38:21.215Z,9.60
2022-10-20T20:40:54.456Z,10.70
2022-10-20T20:43:27.356Z,10.10
2022-10-20T20:46:06.666Z,11.80
2022-10-20T20:48:40.595Z,10.10
2022-10-20T20:51:15.185Z,10.70
2022-10-20T20:53:47.766Z,11.70
2022-10-20T20:56:23.427Z,10.80
2022-10-20T20:58:59.309Z,12.40
2022-10-20T21:01:33.263Z,9.90
2022-10-20T21:04:11.774Z,10.70
2022-10-20T21:07:12.136Z,11.80
2022-10-20T21:09:39.404Z,11.50
2022-10-20T21:14:50.633Z,11.70
2022-10-20T21:19:55.037Z,11.00
2022-10-20T21:24:59.137Z,11.80
2022-10-20T21:27:32.053Z,11.00
2022-10-20T21:30:04.870Z,12.20
2022-10-20T21:32:38.357Z,11.80
2022-10-20T21:37:43.217Z,11.20
2022-10-20T21:40:16.626Z,13.30
2022-10-20T21:42:49.323Z,12.10
2022-10-20T21:45:21.896Z,12.10
2022-10-20T21:47:58.316Z,12.00
2022-10-20T21:50:30.913Z,13.10
2022-10-20T21:53:03.645Z,14.00
2022-10-20T21:55:37.995Z,13.60
2022-10-20T21:58:11.605Z,13.30
2022-10-20T22:00:43.986Z,12.60
2022-10-20T22:03:17.166Z,11.10
2022-10-20T22:05:51.365Z,12.10
2022-10-20T22:08:23.997Z,12.60
2022-10-20T22:10:56.696Z,11.80
2022-10-20T22:13:29.426Z,13.50
2022-10-20T22:16:02.295Z,13.70
2022-10-20T22:18:35.106Z,11.30
2022-10-20T22:21:11.273Z,12.30
2022-10-20T22:23:47.033Z,12.30
2022-10-20T22:26:21.053Z,13.30
2022-10-20T22:28:55.638Z,11.80
2022-10-20T22:31:28.895Z,11.90
2022-10-20T22:34:03.496Z,13.00
2022-10-20T22:36:36.684Z,13.20
2022-10-20T22:39:10.215Z,13.30
2022-10-20T22:41:42.776Z,13.00
2022-10-20T22:44:15.305Z,12.60
2022-10-20T22:46:47.905Z,11.90
2022-10-20T22:49:20.657Z,12.80
2022-10-20T22:51:53.246Z,12.20
2022-10-20T22:54:25.716Z,12.50
2022-10-20T22:56:58.873Z,12.90
2022-10-20T22:59:33.386Z,13.30
2022-10-20T23:02:05.975Z,13.10
2022-10-20T23:04:40.097Z,13.00
2022-10-20T23:07:12.685Z,14.00
2022-10-20T23:09:45.376Z,12.50
2022-10-20T23:12:18.016Z,14.60
2022-10-20T23:14:51.135Z,13.20
2022-10-20T23:17:23.643Z,12.90
2022-10-20T23:19:56.785Z,13.60
2022-10-20T23:22:31.096Z,14.90
2022-10-20T23:25:03.678Z,15.10
2022-10-20T23:27:38.349Z,15.50
2022-10-20T23:30:12.466Z,13.80
2022-10-20T23:32:45.606Z,14.20
2022-10-20T23:35:18.245Z,15.10
2022-10-20T23:37:51.995Z,16.10
2022-10-20T23:40:24.656Z,13.60
2022-10-20T23:42:57.375Z,15.00
2022-10-20T23:45:31.789Z,12.90
2022-10-20T23:48:09.256Z,14.70
2022-10-20T23:50:42.278Z,15.10
2022-10-20T23:53:15.218Z,14.90
2022-10-20T23:55:49.363Z,14.20
2022-10-20T23:58:23.138Z,14.10
